createdAt,value
2023-04-06T00:00:35.434Z,41.60
2023-04-06T00:03:02.237Z,41.00
2023-04-06T00:05:31.522Z,40.60
2023-04-06T00:08:01.410Z,40.03
2023-04-06T00:10:28.220Z,40.28
2023-04-06T00:12:57.604Z,38.92
2023-04-06T00:15:24.265Z,38.30
2023-04-06T00:17:51.121Z,38.00
2023-04-06T00:20:18.232Z,36.33
2023-04-06T00:22:45.772Z,36.83
2023-04-06T00:25:12.527Z,37.28
2023-04-06T00:27:39.719Z,37.67
2023-04-06T00:30:06.936Z,37.20
2023-04-06T00:32:33.722Z,35.65
2023-04-06T00:35:00.374Z,36.63
2023-04-06T00:37:27.004Z,34.47
2023-04-06T00:39:53.642Z,32.90
2023-04-06T00:42:26.573Z,31.35
2023-04-06T00:44:54.602Z,32.55
2023-04-06T00:47:22.340Z,32.40
2023-04-06T00:49:49.453Z,31.73
2023-04-06T00:52:16.901Z,31.10
2023-04-06T00:54:43.482Z,31.83
2023-04-06T00:57:10.849Z,30.80
2023-04-06T00:59:37.577Z,29.98
2023-04-06T01:02:04.545Z,30.08
2023-04-06T01:04:31.567Z,30.58
2023-04-06T01:06:58.186Z,29.33
2023-04-06T01:09:24.809Z,30.25
2023-04-06T01:11:51.415Z,28.92
2023-04-06T01:14:18.036Z,27.92
2023-04-06T01:16:44.756Z,27.50
2023-04-06T01:19:12.992Z,28.55
2023-04-06T01:21:40.496Z,27.92
2023-04-06T01:24:08.089Z,27.10
2023-04-06T01:26:36.075Z,26.67
2023-04-06T01:29:04.193Z,28.67
2023-04-06T01:31:31.039Z,28.70
2023-04-06T01:33:57.861Z,28.58
2023-04-06T01:36:24.447Z,27.77
2023-04-06T01:38:51.216Z,28.02
2023-04-06T01:41:17.798Z,27.10
2023-04-06T01:43:46.398Z,27.92
2023-04-06T01:46:12.989Z,28.42
2023-04-06T01:48:39.620Z,29.17
2023-04-06T01:51:06.216Z,29.02
2023-04-06T01:53:32.800Z,27.33
2023-04-06T01:55:59.365Z,27.55
2023-04-06T01:58:26.533Z,28.55
2023-04-06T02:00:53.197Z,29.38
2023-04-06T02:03:19.975Z,29.17
2023-04-06T02:05:47.347Z,28.83
2023-04-06T02:08:13.961Z,28.48
2023-04-06T02:10:40.801Z,28.73
2023-04-06T02:13:07.418Z,28.35
2023-04-06T02:15:34.013Z,29.38
2023-04-06T02:18:01.205Z,28.50
2023-04-06T02:20:27.976Z,27.88
2023-04-06T02:22:54.553Z,31.75
2023-04-06T02:25:21.223Z,29.70
2023-04-06T02:27:47.854Z,28.85
2023-04-06T02:30:14.458Z,30.65
2023-04-06T02:32:41.248Z,31.10
2023-04-06T02:35:08.247Z,30.08
2023-04-06T02:37:34.873Z,29.85
2023-04-06T02:40:01.509Z,31.83
2023-04-06T02:42:28.113Z,29.55
2023-04-06T02:44:54.748Z,32.40
2023-04-06T02:47:21.566Z,28.88
2023-04-06T02:49:50.523Z,29.40
2023-04-06T02:52:18.887Z,30.33
2023-04-06T02:54:45.490Z,30.73
2023-04-06T02:57:12.284Z,31.02
2023-04-06T02:59:39.205Z,29.58
2023-04-06T03:02:06.170Z,29.83
2023-04-06T03:04:32.798Z,31.35
2023-04-06T03:07:01.285Z,29.25
2023-04-06T03:09:28.560Z,29.42
2023-04-06T03:11:55.164Z,29.23
2023-04-06T03:14:23.256Z,29.35
2023-04-06T03:16:50.745Z,28.10
2023-04-06T03:19:17.360Z,28.63
2023-04-06T03:21:44.017Z,29.20
2023-04-06T03:24:10.653Z,28.67
2023-04-06T03:26:37.221Z,29.33
2023-04-06T03:29:03.847Z,29.23
2023-04-06T03:31:30.657Z,29.45
2023-04-06T03:33:57.433Z,29.30
2023-04-06T03:36:24.008Z,29.83
2023-04-06T03:38:50.953Z,28.10
2023-04-06T03:41:17.628Z,29.83
2023-04-06T03:43:44.305Z,29.25
2023-04-06T03:46:10.985Z,29.73
2023-04-06T03:48:37.680Z,29.73
2023-04-06T03:51:04.437Z,29.80
2023-04-06T03:53:31.128Z,29.27
2023-04-06T03:55:57.730Z,28.38
2023-04-06T03:58:24.365Z,29.58
2023-04-06T04:00:50.999Z,29.83
2023-04-06T04:03:17.743Z,29.55
2023-04-06T04:05:44.562Z,30.27
2023-04-06T04:08:11.505Z,28.35
2023-04-06T04:10:38.085Z,29.40
2023-04-06T04:13:04.653Z,28.70
2023-04-06T04:15:31.238Z,29.77
2023-04-06T04:17:57.858Z,29.50
2023-04-06T04:20:24.581Z,29.90
2023-04-06T04:22:51.212Z,32.75
2023-04-06T04:25:17.812Z,28.83
2023-04-06T04:27:44.384Z,29.15
2023-04-06T04:30:11.476Z,28.67
2023-04-06T04:32:38.108Z,29.38
2023-04-06T04:35:04.845Z,29.83
2023-04-06T04:37:31.732Z,30.27
2023-04-06T04:39:58.331Z,32.08
2023-04-06T04:42:24.957Z,31.23
2023-04-06T04:44:51.558Z,31.88
2023-04-06T04:47:18.244Z,31.67
2023-04-06T04:49:44.848Z,31.15
2023-04-06T04:52:11.461Z,32.33
2023-04-06T04:54:38.786Z,34.03
2023-04-06T04:57:05.376Z,34.20
2023-04-06T04:59:32.164Z,35.17
2023-04-06T05:01:58.831Z,32.85
2023-04-06T05:04:25.404Z,33.20
2023-04-06T05:06:52.091Z,33.45
2023-04-06T05:09:18.817Z,31.75
2023-04-06T05:11:45.487Z,33.53
2023-04-06T05:14:12.131Z,32.75
2023-04-06T05:16:38.766Z,32.83
2023-04-06T05:19:05.378Z,32.67
2023-04-06T05:21:32.809Z,31.35
2023-04-06T05:23:59.719Z,30.80
2023-04-06T05:26:26.450Z,30.60
2023-04-06T05:28:53.082Z,30.52
2023-04-06T05:31:19.742Z,30.83
2023-04-06T05:33:46.442Z,32.10
2023-04-06T05:36:14.988Z,30.80
2023-04-06T05:38:41.967Z,31.02
2023-04-06T05:41:08.748Z,29.00
2023-04-06T05:43:35.514Z,30.10
2023-04-06T05:46:02.231Z,30.77
2023-04-06T05:48:28.898Z,30.73
2023-04-06T05:50:55.796Z,29.45
2023-04-06T05:53:22.546Z,29.48
2023-04-06T05:55:49.107Z,28.95
2023-04-06T05:58:15.942Z,27.45
2023-04-06T06:00:43.604Z,27.70
2023-04-06T06:03:11.022Z,29.02
2023-04-06T06:05:37.709Z,28.05
2023-04-06T06:08:04.424Z,33.88
2023-04-06T06:10:31.206Z,27.75
2023-04-06T06:12:57.825Z,28.77
2023-04-06T06:15:24.413Z,29.05
2023-04-06T06:17:51.037Z,27.77
2023-04-06T06:20:17.897Z,28.20
2023-04-06T06:22:44.517Z,28.13
2023-04-06T06:25:11.181Z,29.70
2023-04-06T06:27:38.003Z,28.33
2023-04-06T06:30:05.226Z,28.38
2023-04-06T06:32:33.633Z,28.17
2023-04-06T06:35:00.488Z,29.05
2023-04-06T06:37:28.206Z,27.83
2023-04-06T06:39:55.977Z,28.50
2023-04-06T06:42:22.585Z,28.98
2023-04-06T06:44:51.260Z,27.75
2023-04-06T06:47:17.905Z,27.35
2023-04-06T06:49:46.808Z,27.10
2023-04-06T06:52:13.387Z,23.63
2023-04-06T06:54:39.991Z,23.80
2023-04-06T06:57:06.789Z,24.38
2023-04-06T06:59:34.793Z,24.80
2023-04-06T07:02:01.582Z,23.45
2023-04-06T07:04:28.382Z,22.83
2023-04-06T07:06:54.998Z,23.05
2023-04-06T07:09:21.680Z,23.30
2023-04-06T07:11:49.102Z,23.80
2023-04-06T07:14:17.254Z,23.42
2023-04-06T07:16:46.219Z,23.35
2023-04-06T07:19:12.956Z,23.83
2023-04-06T07:21:39.559Z,22.33
2023-04-06T07:24:06.664Z,22.95
2023-04-06T07:26:33.654Z,24.90
2023-04-06T07:29:00.236Z,23.15
2023-04-06T07:31:26.945Z,23.10
2023-04-06T07:33:53.683Z,21.73
2023-04-06T07:36:21.384Z,22.15
2023-04-06T07:38:48.037Z,22.35
2023-04-06T07:41:14.665Z,22.05
2023-04-06T07:43:41.279Z,24.33
2023-04-06T07:46:08.220Z,21.45
2023-04-06T07:48:35.144Z,22.05
2023-04-06T07:51:06.068Z,22.63
2023-04-06T07:53:33.022Z,22.00
2023-04-06T07:56:00.370Z,22.80
2023-04-06T07:58:27.145Z,22.65
2023-04-06T08:00:53.917Z,21.88
2023-04-06T08:03:22.526Z,22.88
2023-04-06T08:05:49.252Z,21.63
2023-04-06T08:08:16.888Z,22.15
2023-04-06T08:10:43.518Z,23.95
2023-04-06T08:13:10.380Z,23.42
2023-04-06T08:15:37.100Z,22.23
2023-04-06T08:18:03.826Z,23.25
2023-04-06T08:20:30.868Z,24.27
2023-04-06T08:22:57.425Z,22.30
2023-04-06T08:25:24.241Z,22.75
2023-04-06T08:27:50.950Z,23.63
2023-04-06T08:30:17.675Z,22.67
2023-04-06T08:32:44.412Z,22.55
2023-04-06T08:35:11.131Z,22.63
2023-04-06T08:37:37.712Z,23.00
2023-04-06T08:40:05.215Z,23.80
2023-04-06T08:42:34.488Z,23.98
2023-04-06T08:45:01.762Z,22.52
2023-04-06T08:47:30.685Z,25.25
2023-04-06T08:49:58.175Z,25.00
2023-04-06T08:52:27.746Z,24.48
2023-04-06T08:54:54.448Z,24.23
2023-04-06T08:57:21.419Z,22.60
2023-04-06T08:59:48.871Z,22.50
2023-04-06T09:02:19.430Z,23.70
2023-04-06T09:04:50.897Z,22.85
2023-04-06T09:07:17.851Z,22.60
2023-04-06T09:09:48.817Z,22.90
2023-04-06T09:12:29.303Z,22.30
2023-04-06T09:14:57.352Z,22.63
2023-04-06T09:17:28.471Z,22.73
2023-04-06T09:19:56.112Z,23.40
2023-04-06T09:22:25.571Z,23.20
2023-04-06T09:24:54.739Z,23.35
2023-04-06T09:27:32.080Z,22.38
2023-04-06T09:30:06.646Z,23.33
2023-04-06T09:32:33.445Z,22.25
2023-04-06T09:35:10.033Z,22.45
2023-04-06T09:37:36.816Z,23.05
2023-04-06T09:40:06.334Z,22.27
2023-04-06T09:42:33.107Z,22.15
2023-04-06T09:44:59.783Z,21.45
2023-04-06T09:47:29.517Z,21.92
2023-04-06T09:50:00.650Z,22.00
2023-04-06T09:52:31.243Z,20.52
2023-04-06T09:55:02.473Z,20.83
2023-04-06T09:57:38.531Z,21.88
2023-04-06T10:00:12.303Z,21.50
2023-04-06T10:02:44.894Z,22.17
2023-04-06T10:05:51.751Z,21.58
2023-04-06T10:08:20.117Z,21.90
2023-04-06T10:10:48.211Z,21.65
2023-04-06T10:13:15.820Z,22.50
2023-04-06T10:15:43.514Z,21.08
2023-04-06T10:18:10.505Z,22.10
2023-04-06T10:20:43.436Z,21.88
2023-04-06T10:23:21.115Z,21.35
2023-04-06T10:25:58.214Z,21.35
2023-04-06T10:28:26.378Z,20.67
2023-04-06T10:31:00.616Z,20.73
2023-04-06T10:33:27.894Z,20.10
2023-04-06T10:35:56.679Z,20.17
2023-04-06T10:38:41.377Z,20.38
2023-04-06T10:41:12.659Z,20.15
2023-04-06T10:43:42.099Z,20.63
2023-04-06T10:46:10.724Z,21.38
2023-04-06T10:48:47.608Z,20.30
2023-04-06T10:51:16.839Z,19.77
2023-04-06T10:53:50.602Z,21.40
2023-04-06T10:56:18.926Z,20.90
2023-04-06T10:58:57.146Z,20.63
2023-04-06T11:01:26.056Z,20.50
2023-04-06T11:03:55.384Z,21.00
2023-04-06T11:06:23.772Z,20.13
2023-04-06T11:08:52.073Z,20.92
2023-04-06T11:11:21.849Z,19.70
2023-04-06T11:13:52.656Z,20.23
2023-04-06T11:16:22.112Z,19.98
2023-04-06T11:18:56.553Z,20.42
2023-04-06T11:21:44.328Z,19.73
2023-04-06T11:24:13.009Z,20.60
2023-04-06T11:26:46.909Z,19.83
2023-04-06T11:29:14.447Z,19.70
2023-04-06T11:31:48.385Z,19.90
2023-04-06T11:34:20.341Z,21.35
2023-04-06T11:36:48.807Z,19.55
2023-04-06T11:39:22.388Z,20.45
2023-04-06T11:41:50.762Z,20.00
2023-04-06T11:44:34.964Z,19.88
2023-04-06T11:47:05.946Z,20.13
2023-04-06T11:49:34.770Z,19.50
2023-04-06T11:52:02.139Z,20.00
2023-04-06T11:54:39.242Z,19.15
2023-04-06T11:57:06.545Z,19.77
2023-04-06T11:59:34.132Z,19.45
2023-04-06T12:02:02.542Z,19.48
2023-04-06T12:04:29.435Z,19.73
2023-04-06T12:06:56.687Z,19.38
2023-04-06T12:09:23.726Z,20.17
2023-04-06T12:11:50.907Z,20.27
2023-04-06T12:14:17.645Z,20.17
2023-04-06T12:16:44.814Z,19.90
2023-04-06T12:19:11.534Z,19.88
2023-04-06T12:21:38.461Z,19.25
2023-04-06T12:24:06.541Z,20.08
2023-04-06T12:26:33.736Z,19.75
2023-04-06T12:29:07.994Z,20.42
2023-04-06T12:31:42.007Z,20.95
2023-04-06T12:34:08.656Z,20.47
2023-04-06T12:36:35.474Z,20.45
2023-04-06T12:39:02.158Z,22.13
2023-04-06T12:41:29.420Z,28.67
2023-04-06T12:43:56.694Z,21.55
2023-04-06T12:46:24.341Z,24.45
2023-04-06T12:48:54.614Z,24.27
2023-04-06T12:51:21.520Z,20.98
2023-04-06T12:53:48.213Z,20.92
2023-04-06T12:56:17.927Z,20.38
2023-04-06T12:58:45.783Z,20.02
2023-04-06T13:01:15.591Z,21.35
2023-04-06T13:03:42.329Z,20.13
2023-04-06T13:06:09.717Z,20.35
2023-04-06T13:08:38.412Z,20.63
2023-04-06T13:11:05.996Z,24.63
2023-04-06T13:13:32.944Z,21.98
2023-04-06T13:16:08.353Z,19.88
2023-04-06T13:18:36.476Z,23.77
2023-04-06T13:21:03.280Z,22.25
2023-04-06T13:23:29.983Z,24.42
2023-04-06T13:26:05.864Z,21.33
2023-04-06T13:28:34.104Z,20.63
2023-04-06T13:31:02.396Z,21.80
2023-04-06T13:33:30.226Z,20.92
2023-04-06T13:35:57.157Z,20.33
2023-04-06T13:38:25.502Z,20.95
2023-04-06T13:40:52.579Z,20.63
2023-04-06T13:43:21.263Z,20.95
2023-04-06T13:45:56.484Z,21.15
2023-04-06T13:48:23.400Z,21.15
2023-04-06T13:50:50.263Z,21.00
2023-04-06T13:53:16.984Z,22.25
2023-04-06T13:55:43.834Z,21.85
2023-04-06T13:58:10.908Z,21.08
2023-04-06T14:00:37.986Z,22.63
2023-04-06T14:03:05.148Z,21.98
2023-04-06T14:05:33.579Z,21.58
2023-04-06T14:08:00.395Z,22.23
2023-04-06T14:10:28.798Z,22.15
2023-04-06T14:12:56.719Z,21.67
2023-04-06T14:15:24.856Z,22.58
2023-04-06T14:17:52.333Z,21.70
2023-04-06T14:20:20.154Z,22.77
2023-04-06T14:22:47.570Z,22.35
2023-04-06T14:25:14.506Z,22.05
2023-04-06T14:27:41.338Z,21.42
2023-04-06T14:30:09.232Z,22.27
2023-04-06T14:32:37.509Z,21.73
2023-04-06T14:35:07.385Z,22.00
2023-04-06T14:37:34.585Z,21.48
2023-04-06T14:40:01.329Z,22.55
2023-04-06T14:42:27.961Z,22.27
2023-04-06T14:44:54.770Z,22.08
2023-04-06T14:47:22.662Z,21.80
2023-04-06T14:49:52.935Z,21.55
2023-04-06T14:52:19.764Z,21.92
2023-04-06T14:54:49.077Z,21.83
2023-04-06T14:57:15.654Z,21.17
2023-04-06T14:59:42.257Z,21.20
2023-04-06T15:02:08.947Z,22.67
2023-04-06T15:04:37.289Z,21.95
2023-04-06T15:07:04.261Z,20.42
2023-04-06T15:09:31.461Z,20.45
2023-04-06T15:11:58.173Z,20.80
2023-04-06T15:14:24.837Z,20.98
2023-04-06T15:16:51.422Z,21.15
2023-04-06T15:19:18.091Z,20.50
2023-04-06T15:21:44.674Z,20.88
2023-04-06T15:24:11.392Z,21.52
2023-04-06T15:26:38.029Z,22.20
2023-04-06T15:29:04.766Z,20.17
2023-04-06T15:31:37.483Z,21.17
2023-04-06T15:34:09.340Z,21.58
2023-04-06T15:36:36.529Z,21.67
2023-04-06T15:39:04.887Z,21.30
2023-04-06T15:41:31.745Z,20.60
2023-04-06T15:43:58.840Z,21.35
2023-04-06T15:46:28.180Z,21.27
2023-04-06T15:48:56.100Z,21.52
2023-04-06T15:51:24.052Z,20.55
2023-04-06T15:53:50.796Z,21.50
2023-04-06T15:56:17.382Z,20.98
2023-04-06T15:58:44.156Z,21.73
2023-04-06T16:01:13.249Z,21.38
2023-04-06T16:03:40.032Z,21.58
2023-04-06T16:06:08.900Z,21.95
2023-04-06T16:08:36.974Z,20.98
2023-04-06T16:11:03.729Z,21.83
2023-04-06T16:13:30.912Z,22.05
2023-04-06T16:15:57.612Z,22.02
2023-04-06T16:18:24.533Z,22.23
2023-04-06T16:20:51.180Z,21.20
2023-04-06T16:23:17.755Z,22.63
2023-04-06T16:25:44.418Z,22.23
2023-04-06T16:28:11.188Z,21.88
2023-04-06T16:30:39.261Z,21.33
2023-04-06T16:33:06.313Z,21.50
2023-04-06T16:35:33.518Z,22.27
2023-04-06T16:38:03.108Z,21.77
2023-04-06T16:40:29.778Z,22.58
2023-04-06T16:42:56.370Z,22.40
2023-04-06T16:45:24.172Z,22.10
2023-04-06T16:47:50.954Z,21.65
2023-04-06T16:50:17.720Z,22.30
2023-04-06T16:52:44.708Z,22.58
2023-04-06T16:55:11.725Z,22.60
2023-04-06T16:57:38.578Z,23.65
2023-04-06T17:00:07.541Z,23.13
2023-04-06T17:02:36.474Z,22.75
2023-04-06T17:05:04.092Z,23.75
2023-04-06T17:07:33.074Z,22.80
2023-04-06T17:10:01.219Z,24.15
2023-04-06T17:12:29.063Z,23.98
2023-04-06T17:14:55.813Z,24.77
2023-04-06T17:17:22.778Z,24.52
2023-04-06T17:19:49.733Z,24.33
2023-04-06T17:22:20.716Z,27.35
2023-04-06T17:24:49.007Z,27.45
2023-04-06T17:27:16.284Z,26.48
2023-04-06T17:29:43.291Z,27.35
2023-04-06T17:32:10.882Z,27.95
2023-04-06T17:34:37.534Z,29.60
2023-04-06T17:37:04.085Z,32.95
2023-04-06T17:39:30.707Z,36.05
2023-04-06T17:41:58.014Z,36.05
2023-04-06T17:44:24.582Z,33.00
2023-04-06T17:46:51.312Z,30.73
2023-04-06T17:49:17.952Z,34.83
2023-04-06T17:51:45.173Z,41.22
2023-04-06T17:54:11.806Z,33.80
2023-04-06T17:56:38.458Z,32.20
2023-04-06T17:59:08.072Z,32.92
2023-04-06T18:01:35.164Z,33.55
2023-04-06T18:04:01.909Z,33.58
2023-04-06T18:06:28.676Z,33.30
2023-04-06T18:08:55.326Z,33.83
2023-04-06T18:11:22.064Z,30.75
2023-04-06T18:13:48.970Z,28.27
2023-04-06T18:16:17.612Z,28.13
2023-04-06T18:18:44.623Z,27.77
2023-04-06T18:21:11.471Z,27.05
2023-04-06T18:23:38.445Z,27.25
2023-04-06T18:26:05.920Z,27.35
2023-04-06T18:28:33.417Z,28.58
2023-04-06T18:31:00.657Z,26.50
2023-04-06T18:33:27.590Z,27.25
2023-04-06T18:35:56.598Z,29.13
2023-04-06T18:38:23.808Z,27.05
2023-04-06T18:40:50.523Z,27.08
2023-04-06T18:43:17.133Z,26.90
2023-04-06T18:45:44.078Z,26.00
2023-04-06T18:48:10.945Z,27.10
2023-04-06T18:50:37.526Z,26.80
2023-04-06T18:53:04.119Z,28.88
2023-04-06T18:55:34.189Z,28.83
2023-04-06T18:58:00.949Z,28.48
2023-04-06T19:00:27.626Z,27.73
2023-04-06T19:02:54.499Z,30.05
2023-04-06T19:05:22.387Z,29.58
2023-04-06T19:07:52.408Z,30.55
2023-04-06T19:10:19.888Z,30.05
2023-04-06T19:12:47.705Z,29.67
2023-04-06T19:15:14.645Z,29.67
2023-04-06T19:17:41.332Z,31.38
2023-04-06T19:20:09.173Z,31.05
2023-04-06T19:22:37.150Z,30.73
2023-04-06T19:25:06.354Z,30.48
2023-04-06T19:27:33.169Z,30.42
2023-04-06T19:30:00.604Z,30.92
2023-04-06T19:32:27.681Z,29.63
2023-04-06T19:34:54.350Z,30.17
2023-04-06T19:37:21.593Z,31.08
2023-04-06T19:39:48.201Z,30.48
2023-04-06T19:42:15.685Z,31.20
2023-04-06T19:44:42.357Z,29.85
2023-04-06T19:47:10.245Z,29.70
2023-04-06T19:49:38.056Z,31.02
2023-04-06T19:52:05.928Z,31.27
2023-04-06T19:54:32.483Z,30.95
2023-04-06T19:56:59.063Z,30.40
2023-04-06T19:59:25.737Z,31.02
2023-04-06T20:01:52.390Z,30.25
2023-04-06T20:04:19.166Z,32.72
2023-04-06T20:06:46.073Z,32.03
2023-04-06T20:09:15.138Z,32.45
2023-04-06T20:11:41.755Z,32.22
2023-04-06T20:14:08.967Z,32.63
2023-04-06T20:16:35.677Z,33.05
2023-04-06T20:19:02.448Z,32.78
2023-04-06T20:21:29.125Z,33.22
2023-04-06T20:23:55.811Z,33.05
2023-04-06T20:26:22.392Z,32.88
2023-04-06T20:28:49.015Z,35.55
2023-04-06T20:31:15.731Z,32.25
2023-04-06T20:33:42.630Z,33.88
2023-04-06T20:36:12.771Z,33.85
2023-04-06T20:38:42.837Z,33.67
2023-04-06T20:41:10.322Z,33.55
2023-04-06T20:43:37.018Z,32.70
2023-04-06T20:46:04.168Z,33.67
2023-04-06T20:48:33.391Z,32.50
2023-04-06T20:51:01.895Z,34.10
2023-04-06T20:53:28.487Z,34.63
2023-04-06T20:55:55.190Z,33.92
2023-04-06T20:58:21.926Z,34.33
2023-04-06T21:00:49.638Z,35.35
2023-04-06T21:03:19.733Z,35.83
2023-04-06T21:05:54.473Z,35.22
2023-04-06T21:08:21.307Z,35.38
2023-04-06T21:10:47.904Z,34.03
2023-04-06T21:13:14.528Z,35.35
2023-04-06T21:15:41.301Z,32.40
2023-04-06T21:18:08.089Z,35.20
2023-04-06T21:20:35.462Z,36.88
2023-04-06T21:23:02.053Z,34.15
2023-04-06T21:25:28.590Z,33.72
2023-04-06T21:27:56.939Z,34.85
2023-04-06T21:30:23.509Z,34.92
2023-04-06T21:32:50.176Z,34.10
2023-04-06T21:35:16.833Z,34.13
2023-04-06T21:37:43.423Z,35.50
2023-04-06T21:40:10.409Z,33.28
2023-04-06T21:42:37.073Z,33.22
2023-04-06T21:45:03.847Z,33.33
2023-04-06T21:47:30.483Z,33.20
2023-04-06T21:49:57.048Z,32.33
2023-04-06T21:52:23.606Z,30.95
2023-04-06T21:54:50.132Z,33.08
2023-04-06T21:57:16.719Z,31.30
2023-04-06T21:59:43.394Z,33.17
2023-04-06T22:02:10.088Z,33.92
2023-04-06T22:04:37.053Z,33.30
2023-04-06T22:07:03.943Z,34.90
2023-04-06T22:09:31.536Z,35.50
2023-04-06T22:11:58.098Z,35.03
2023-04-06T22:14:25.790Z,34.03
2023-04-06T22:16:52.349Z,35.00
2023-04-06T22:19:18.908Z,33.47
2023-04-06T22:21:45.567Z,33.80
2023-04-06T22:24:12.376Z,37.58
2023-04-06T22:26:39.039Z,35.50
2023-04-06T22:29:05.726Z,38.13
2023-04-06T22:31:32.347Z,37.00
2023-04-06T22:33:58.946Z,38.78
2023-04-06T22:36:26.751Z,41.45
2023-04-06T22:38:53.297Z,34.45
2023-04-06T22:41:19.877Z,39.00
2023-04-06T22:43:46.507Z,40.20
2023-04-06T22:46:13.102Z,42.65
2023-04-06T22:48:39.687Z,41.40
2023-04-06T22:51:06.324Z,41.80
2023-04-06T22:53:32.973Z,41.88
2023-04-06T22:55:59.600Z,44.38
2023-04-06T22:58:26.431Z,42.38
2023-04-06T23:00:53.022Z,41.83
2023-04-06T23:03:19.672Z,44.65
2023-04-06T23:05:47.655Z,45.05
2023-04-06T23:08:14.302Z,46.05
2023-04-06T23:10:42.168Z,46.15
2023-04-06T23:13:09.826Z,45.47
2023-04-06T23:15:37.981Z,46.28
2023-04-06T23:18:04.640Z,46.85
2023-04-06T23:20:31.472Z,45.72
2023-04-06T23:22:58.037Z,44.72
2023-04-06T23:25:24.656Z,46.92
2023-04-06T23:27:52.361Z,47.55
2023-04-06T23:30:18.919Z,47.75
2023-04-06T23:32:45.956Z,46.13
2023-04-06T23:35:12.664Z,46.13
2023-04-06T23:37:39.416Z,46.75
2023-04-06T23:40:06.686Z,44.40
2023-04-06T23:42:33.312Z,44.53
2023-04-06T23:44:59.878Z,41.63
2023-04-06T23:47:26.495Z,38.60
2023-04-06T23:49:53.389Z,34.75
2023-04-06T23:52:20.427Z,36.38
2023-04-06T23:54:46.997Z,39.55
2023-04-06T23:57:13.590Z,46.00
2023-04-06T23:59:40.171Z,49.13
